sensor_id;sensor_type;location;lat;lon;timestamp;P1;durP1;ratioP1;P2;durP2;ratioP2
17251;SDS011;8742;51.716;8.790;2023-02-28T00:00:06;4.80;;;1.50;;
17251;SDS011;8742;51.716;8.790;2023-02-28T00:02:36;2.50;;;1.20;;
17251;SDS011;8742;51.716;8.790;2023-02-28T00:05:04;1.50;;;1.40;;
17251;SDS011;8742;51.716;8.790;2023-02-28T00:07:32;1.50;;;1.17;;
17251;SDS011;8742;51.716;8.790;2023-02-28T00:10:00;2.47;;;1.43;;
17251;SDS011;8742;51.716;8.790;2023-02-28T00:12:27;2.80;;;1.37;;
17251;SDS011;8742;51.716;8.790;2023-02-28T00:14:54;3.03;;;1.60;;
17251;SDS011;8742;51.716;8.790;2023-02-28T00:17:21;7.93;;;2.27;;
17251;SDS011;8742;51.716;8.790;2023-02-28T00:19:50;3.30;;;1.80;;
17251;SDS011;8742;51.716;8.790;2023-02-28T00:22:19;5.20;;;1.60;;
17251;SDS011;8742;51.716;8.790;2023-02-28T00:24:46;3.30;;;1.70;;
17251;SDS011;8742;51.716;8.790;2023-02-28T00:27:13;3.17;;;1.70;;
17251;SDS011;8742;51.716;8.790;2023-02-28T00:29:40;4.73;;;1.93;;
17251;SDS011;8742;51.716;8.790;2023-02-28T00:32:07;3.83;;;1.80;;
17251;SDS011;8742;51.716;8.790;2023-02-28T00:34:34;3.10;;;1.40;;
17251;SDS011;8742;51.716;8.790;2023-02-28T00:37:04;3.60;;;1.30;;
17251;SDS011;8742;51.716;8.790;2023-02-28T00:39:33;2.03;;;1.30;;
17251;SDS011;8742;51.716;8.790;2023-02-28T00:42:01;1.67;;;1.30;;
17251;SDS011;8742;51.716;8.790;2023-02-28T00:44:29;1.67;;;1.37;;
17251;SDS011;8742;51.716;8.790;2023-02-28T00:46:56;1.10;;;1.00;;
17251;SDS011;8742;51.716;8.790;2023-02-28T00:49:23;1.13;;;1.03;;
17251;SDS011;8742;51.716;8.790;2023-02-28T00:51:50;2.57;;;1.30;;
17251;SDS011;8742;51.716;8.790;2023-02-28T00:54:19;2.00;;;1.20;;
17251;SDS011;8742;51.716;8.790;2023-02-28T00:56:46;2.40;;;1.33;;
17251;SDS011;8742;51.716;8.790;2023-02-28T00:59:14;1.87;;;1.20;;
17251;SDS011;8742;51.716;8.790;2023-02-28T01:01:43;2.93;;;1.30;;
17251;SDS011;8742;51.716;8.790;2023-02-28T01:04:11;9.60;;;1.50;;
17251;SDS011;8742;51.716;8.790;2023-02-28T01:06:38;1.53;;;1.10;;
17251;SDS011;8742;51.716;8.790;2023-02-28T01:09:06;1.77;;;1.57;;
17251;SDS011;8742;51.716;8.790;2023-02-28T01:11:35;2.50;;;1.80;;
17251;SDS011;8742;51.716;8.790;2023-02-28T01:14:02;4.83;;;1.80;;
17251;SDS011;8742;51.716;8.790;2023-02-28T01:16:30;4.57;;;1.60;;
17251;SDS011;8742;51.716;8.790;2023-02-28T01:18:57;1.77;;;1.10;;
17251;SDS011;8742;51.716;8.790;2023-02-28T01:21:24;5.13;;;1.70;;
17251;SDS011;8742;51.716;8.790;2023-02-28T01:23:51;1.90;;;1.50;;
17251;SDS011;8742;51.716;8.790;2023-02-28T01:26:19;3.20;;;2.00;;
17251;SDS011;8742;51.716;8.790;2023-02-28T01:28:49;5.50;;;1.70;;
17251;SDS011;8742;51.716;8.790;2023-02-28T01:31:17;3.27;;;2.10;;
17251;SDS011;8742;51.716;8.790;2023-02-28T01:33:46;3.53;;;1.70;;
17251;SDS011;8742;51.716;8.790;2023-02-28T01:36:13;3.40;;;1.47;;
17251;SDS011;8742;51.716;8.790;2023-02-28T01:38:42;2.13;;;1.57;;
17251;SDS011;8742;51.716;8.790;2023-02-28T01:41:11;3.27;;;1.83;;
17251;SDS011;8742;51.716;8.790;2023-02-28T01:43:59;1.40;;;1.30;;
17251;SDS011;8742;51.716;8.790;2023-02-28T01:46:29;2.40;;;1.40;;
17251;SDS011;8742;51.716;8.790;2023-02-28T01:48:58;1.37;;;1.20;;
17251;SDS011;8742;51.716;8.790;2023-02-28T01:51:29;1.27;;;1.00;;
17251;SDS011;8742;51.716;8.790;2023-02-28T01:54:02;1.83;;;1.23;;
17251;SDS011;8742;51.716;8.790;2023-02-28T01:56:39;1.93;;;1.50;;
17251;SDS011;8742;51.716;8.790;2023-02-28T01:59:14;2.40;;;1.30;;
17251;SDS011;8742;51.716;8.790;2023-02-28T02:01:48;2.60;;;1.33;;
17251;SDS011;8742;51.716;8.790;2023-02-28T02:04:15;2.17;;;1.50;;
17251;SDS011;8742;51.716;8.790;2023-02-28T02:06:43;2.23;;;1.50;;
17251;SDS011;8742;51.716;8.790;2023-02-28T02:09:13;4.67;;;1.70;;
17251;SDS011;8742;51.716;8.790;2023-02-28T02:11:41;5.23;;;1.63;;
17251;SDS011;8742;51.716;8.790;2023-02-28T02:14:15;3.27;;;1.50;;
17251;SDS011;8742;51.716;8.790;2023-02-28T02:17:04;2.67;;;1.43;;
17251;SDS011;8742;51.716;8.790;2023-02-28T02:25:33;4.47;;;1.53;;
17251;SDS011;8742;51.716;8.790;2023-02-28T02:28:11;2.30;;;1.43;;
17251;SDS011;8742;51.716;8.790;2023-02-28T02:31:09;1.27;;;1.00;;
17251;SDS011;8742;51.716;8.790;2023-02-28T02:37:08;1.40;;;1.10;;
17251;SDS011;8742;51.716;8.790;2023-02-28T02:39:49;2.47;;;1.27;;
17251;SDS011;8742;51.716;8.790;2023-02-28T02:42:21;2.47;;;1.60;;
17251;SDS011;8742;51.716;8.790;2023-02-28T02:44:55;2.73;;;1.47;;
17251;SDS011;8742;51.716;8.790;2023-02-28T02:47:27;2.10;;;1.63;;
17251;SDS011;8742;51.716;8.790;2023-02-28T02:49:59;1.77;;;1.23;;
17251;SDS011;8742;51.716;8.790;2023-02-28T02:52:32;1.60;;;1.27;;
17251;SDS011;8742;51.716;8.790;2023-02-28T02:55:04;6.97;;;1.63;;
17251;SDS011;8742;51.716;8.790;2023-02-28T02:57:36;4.03;;;1.80;;
17251;SDS011;8742;51.716;8.790;2023-02-28T03:00:10;1.77;;;1.33;;
17251;SDS011;8742;51.716;8.790;2023-02-28T03:02:38;1.30;;;1.20;;
17251;SDS011;8742;51.716;8.790;2023-02-28T03:05:08;1.37;;;1.27;;
17251;SDS011;8742;51.716;8.790;2023-02-28T03:07:42;3.97;;;1.80;;
17251;SDS011;8742;51.716;8.790;2023-02-28T03:10:32;4.07;;;1.47;;
17251;SDS011;8742;51.716;8.790;2023-02-28T03:13:05;4.43;;;1.57;;
17251;SDS011;8742;51.716;8.790;2023-02-28T03:15:42;2.10;;;1.37;;
17251;SDS011;8742;51.716;8.790;2023-02-28T03:18:24;1.57;;;1.10;;
17251;SDS011;8742;51.716;8.790;2023-02-28T03:21:00;3.10;;;1.67;;
17251;SDS011;8742;51.716;8.790;2023-02-28T03:23:34;1.73;;;1.60;;
17251;SDS011;8742;51.716;8.790;2023-02-28T03:26:11;2.53;;;1.80;;
17251;SDS011;8742;51.716;8.790;2023-02-28T03:28:46;1.43;;;1.33;;
17251;SDS011;8742;51.716;8.790;2023-02-28T03:31:19;3.60;;;1.70;;
17251;SDS011;8742;51.716;8.790;2023-02-28T03:33:50;4.07;;;1.30;;
17251;SDS011;8742;51.716;8.790;2023-02-28T03:36:24;4.00;;;1.30;;
17251;SDS011;8742;51.716;8.790;2023-02-28T03:38:54;2.10;;;1.57;;
17251;SDS011;8742;51.716;8.790;2023-02-28T03:41:30;1.37;;;1.20;;
17251;SDS011;8742;51.716;8.790;2023-02-28T03:44:05;2.70;;;1.50;;
17251;SDS011;8742;51.716;8.790;2023-02-28T03:46:36;1.87;;;1.50;;
17251;SDS011;8742;51.716;8.790;2023-02-28T03:49:08;2.33;;;1.40;;
17251;SDS011;8742;51.716;8.790;2023-02-28T03:51:41;3.00;;;1.30;;
17251;SDS011;8742;51.716;8.790;2023-02-28T03:54:12;2.17;;;1.50;;
17251;SDS011;8742;51.716;8.790;2023-02-28T03:56:42;2.43;;;1.63;;
17251;SDS011;8742;51.716;8.790;2023-02-28T03:59:15;4.73;;;1.50;;
17251;SDS011;8742;51.716;8.790;2023-02-28T04:01:45;2.87;;;1.67;;
17251;SDS011;8742;51.716;8.790;2023-02-28T04:04:15;2.03;;;1.50;;
17251;SDS011;8742;51.716;8.790;2023-02-28T04:06:44;3.57;;;1.27;;
17251;SDS011;8742;51.716;8.790;2023-02-28T04:09:12;1.40;;;1.30;;
17251;SDS011;8742;51.716;8.790;2023-02-28T04:11:41;1.80;;;1.50;;
17251;SDS011;8742;51.716;8.790;2023-02-28T04:14:10;2.67;;;1.50;;
17251;SDS011;8742;51.716;8.790;2023-02-28T04:16:39;3.87;;;2.20;;
17251;SDS011;8742;51.716;8.790;2023-02-28T04:19:07;5.10;;;2.37;;
17251;SDS011;8742;51.716;8.790;2023-02-28T04:21:35;6.93;;;2.43;;
17251;SDS011;8742;51.716;8.790;2023-02-28T04:24:06;3.33;;;2.07;;
17251;SDS011;8742;51.716;8.790;2023-02-28T04:26:38;6.10;;;2.10;;
17251;SDS011;8742;51.716;8.790;2023-02-28T04:29:06;1.93;;;1.60;;
17251;SDS011;8742;51.716;8.790;2023-02-28T04:31:33;2.87;;;1.70;;
17251;SDS011;8742;51.716;8.790;2023-02-28T04:34:00;2.83;;;1.87;;
17251;SDS011;8742;51.716;8.790;2023-02-28T04:36:28;2.87;;;1.70;;
17251;SDS011;8742;51.716;8.790;2023-02-28T04:38:56;4.07;;;1.90;;
17251;SDS011;8742;51.716;8.790;2023-02-28T04:41:25;3.17;;;2.10;;
17251;SDS011;8742;51.716;8.790;2023-02-28T04:43:52;3.23;;;1.67;;
17251;SDS011;8742;51.716;8.790;2023-02-28T04:46:19;4.30;;;2.03;;
17251;SDS011;8742;51.716;8.790;2023-02-28T04:48:46;4.33;;;1.80;;
17251;SDS011;8742;51.716;8.790;2023-02-28T04:51:14;3.17;;;1.90;;
17251;SDS011;8742;51.716;8.790;2023-02-28T04:53:43;3.20;;;1.70;;
17251;SDS011;8742;51.716;8.790;2023-02-28T04:56:11;5.83;;;1.60;;
17251;SDS011;8742;51.716;8.790;2023-02-28T04:58:41;4.57;;;1.83;;
17251;SDS011;8742;51.716;8.790;2023-02-28T05:01:16;2.93;;;1.70;;
17251;SDS011;8742;51.716;8.790;2023-02-28T05:03:46;4.00;;;1.70;;
17251;SDS011;8742;51.716;8.790;2023-02-28T05:06:13;3.13;;;1.80;;
17251;SDS011;8742;51.716;8.790;2023-02-28T05:08:40;3.03;;;1.83;;
17251;SDS011;8742;51.716;8.790;2023-02-28T05:11:11;4.30;;;2.53;;
17251;SDS011;8742;51.716;8.790;2023-02-28T05:13:42;4.20;;;1.93;;
17251;SDS011;8742;51.716;8.790;2023-02-28T05:16:09;3.20;;;2.23;;
17251;SDS011;8742;51.716;8.790;2023-02-28T05:18:36;5.17;;;2.47;;
17251;SDS011;8742;51.716;8.790;2023-02-28T05:21:03;2.80;;;2.00;;
17251;SDS011;8742;51.716;8.790;2023-02-28T05:23:31;4.07;;;2.13;;
17251;SDS011;8742;51.716;8.790;2023-02-28T05:26:00;3.93;;;1.93;;
17251;SDS011;8742;51.716;8.790;2023-02-28T05:28:27;4.97;;;2.13;;
17251;SDS011;8742;51.716;8.790;2023-02-28T05:30:55;3.60;;;2.10;;
17251;SDS011;8742;51.716;8.790;2023-02-28T05:33:22;5.87;;;2.37;;
17251;SDS011;8742;51.716;8.790;2023-02-28T05:35:49;5.87;;;2.00;;
17251;SDS011;8742;51.716;8.790;2023-02-28T05:38:16;3.53;;;2.13;;
17251;SDS011;8742;51.716;8.790;2023-02-28T05:40:43;2.63;;;1.90;;
17251;SDS011;8742;51.716;8.790;2023-02-28T05:43:10;5.87;;;1.77;;
17251;SDS011;8742;51.716;8.790;2023-02-28T05:45:38;4.47;;;2.30;;
17251;SDS011;8742;51.716;8.790;2023-02-28T05:48:07;4.00;;;2.00;;
17251;SDS011;8742;51.716;8.790;2023-02-28T05:50:34;2.60;;;1.97;;
17251;SDS011;8742;51.716;8.790;2023-02-28T05:53:01;6.40;;;1.90;;
17251;SDS011;8742;51.716;8.790;2023-02-28T05:55:29;3.63;;;2.00;;
17251;SDS011;8742;51.716;8.790;2023-02-28T05:57:56;2.93;;;2.30;;
17251;SDS011;8742;51.716;8.790;2023-02-28T06:00:23;4.00;;;2.10;;
17251;SDS011;8742;51.716;8.790;2023-02-28T06:02:50;2.93;;;2.07;;
17251;SDS011;8742;51.716;8.790;2023-02-28T06:05:22;2.33;;;1.90;;
17251;SDS011;8742;51.716;8.790;2023-02-28T06:07:50;4.30;;;1.70;;
17251;SDS011;8742;51.716;8.790;2023-02-28T06:10:17;6.80;;;1.90;;
17251;SDS011;8742;51.716;8.790;2023-02-28T06:12:44;3.17;;;1.97;;
17251;SDS011;8742;51.716;8.790;2023-02-28T06:15:12;10.53;;;2.07;;
17251;SDS011;8742;51.716;8.790;2023-02-28T06:17:40;3.93;;;1.90;;
17251;SDS011;8742;51.716;8.790;2023-02-28T06:20:07;4.47;;;2.20;;
17251;SDS011;8742;51.716;8.790;2023-02-28T06:22:37;2.50;;;1.80;;
17251;SDS011;8742;51.716;8.790;2023-02-28T06:25:04;2.50;;;1.73;;
17251;SDS011;8742;51.716;8.790;2023-02-28T06:27:32;2.47;;;1.80;;
17251;SDS011;8742;51.716;8.790;2023-02-28T06:30:00;3.57;;;2.17;;
17251;SDS011;8742;51.716;8.790;2023-02-28T06:32:27;6.33;;;2.40;;
17251;SDS011;8742;51.716;8.790;2023-02-28T06:34:54;5.43;;;2.63;;
17251;SDS011;8742;51.716;8.790;2023-02-28T06:37:23;4.23;;;2.20;;
17251;SDS011;8742;51.716;8.790;2023-02-28T06:39:53;2.43;;;1.87;;
17251;SDS011;8742;51.716;8.790;2023-02-28T06:42:21;3.63;;;1.73;;
17251;SDS011;8742;51.716;8.790;2023-02-28T06:44:49;2.00;;;1.80;;
17251;SDS011;8742;51.716;8.790;2023-02-28T06:47:16;4.93;;;1.70;;
17251;SDS011;8742;51.716;8.790;2023-02-28T06:49:43;2.90;;;2.03;;
17251;SDS011;8742;51.716;8.790;2023-02-28T06:52:11;1.70;;;1.57;;
17251;SDS011;8742;51.716;8.790;2023-02-28T06:54:38;2.23;;;1.87;;
17251;SDS011;8742;51.716;8.790;2023-02-28T06:57:06;5.03;;;2.27;;
17251;SDS011;8742;51.716;8.790;2023-02-28T06:59:33;4.80;;;2.33;;
17251;SDS011;8742;51.716;8.790;2023-02-28T07:02:01;4.23;;;2.20;;
17251;SDS011;8742;51.716;8.790;2023-02-28T07:04:29;3.33;;;1.77;;
17251;SDS011;8742;51.716;8.790;2023-02-28T07:06:56;2.80;;;1.73;;
17251;SDS011;8742;51.716;8.790;2023-02-28T07:09:23;4.13;;;2.00;;
17251;SDS011;8742;51.716;8.790;2023-02-28T07:11:54;3.30;;;2.20;;
17251;SDS011;8742;51.716;8.790;2023-02-28T07:14:23;2.63;;;2.07;;
17251;SDS011;8742;51.716;8.790;2023-02-28T07:16:50;5.33;;;1.60;;
17251;SDS011;8742;51.716;8.790;2023-02-28T07:19:16;5.53;;;2.07;;
17251;SDS011;8742;51.716;8.790;2023-02-28T07:21:43;3.03;;;1.63;;
17251;SDS011;8742;51.716;8.790;2023-02-28T07:24:10;5.57;;;2.00;;
17251;SDS011;8742;51.716;8.790;2023-02-28T07:26:40;7.23;;;1.73;;
17251;SDS011;8742;51.716;8.790;2023-02-28T07:29:07;2.33;;;1.73;;
17251;SDS011;8742;51.716;8.790;2023-02-28T07:31:36;6.57;;;1.80;;
17251;SDS011;8742;51.716;8.790;2023-02-28T07:34:02;4.07;;;1.97;;
17251;SDS011;8742;51.716;8.790;2023-02-28T07:36:29;2.63;;;1.80;;
17251;SDS011;8742;51.716;8.790;2023-02-28T07:38:57;2.47;;;1.70;;
17251;SDS011;8742;51.716;8.790;2023-02-28T07:41:24;2.60;;;1.73;;
17251;SDS011;8742;51.716;8.790;2023-02-28T07:43:53;3.50;;;1.80;;
17251;SDS011;8742;51.716;8.790;2023-02-28T07:46:20;4.23;;;1.70;;
17251;SDS011;8742;51.716;8.790;2023-02-28T07:48:49;3.67;;;1.80;;
17251;SDS011;8742;51.716;8.790;2023-02-28T07:51:16;4.70;;;2.20;;
17251;SDS011;8742;51.716;8.790;2023-02-28T07:53:43;9.63;;;2.00;;
17251;SDS011;8742;51.716;8.790;2023-02-28T07:58:43;4.87;;;2.27;;
17251;SDS011;8742;51.716;8.790;2023-02-28T08:01:10;2.13;;;1.83;;
17251;SDS011;8742;51.716;8.790;2023-02-28T08:03:38;2.87;;;1.73;;
17251;SDS011;8742;51.716;8.790;2023-02-28T08:06:07;5.37;;;2.07;;
17251;SDS011;8742;51.716;8.790;2023-02-28T08:08:41;8.03;;;3.13;;
17251;SDS011;8742;51.716;8.790;2023-02-28T08:11:09;4.80;;;2.90;;
17251;SDS011;8742;51.716;8.790;2023-02-28T08:13:43;7.10;;;2.60;;
17251;SDS011;8742;51.716;8.790;2023-02-28T08:16:24;6.50;;;2.60;;
17251;SDS011;8742;51.716;8.790;2023-02-28T08:18:51;3.33;;;2.57;;
17251;SDS011;8742;51.716;8.790;2023-02-28T08:21:20;3.00;;;2.13;;
17251;SDS011;8742;51.716;8.790;2023-02-28T08:23:47;2.73;;;2.00;;
17251;SDS011;8742;51.716;8.790;2023-02-28T08:26:15;2.20;;;1.80;;
17251;SDS011;8742;51.716;8.790;2023-02-28T08:28:42;5.33;;;2.17;;
17251;SDS011;8742;51.716;8.790;2023-02-28T08:31:10;4.87;;;2.53;;
17251;SDS011;8742;51.716;8.790;2023-02-28T08:33:39;2.47;;;2.00;;
17251;SDS011;8742;51.716;8.790;2023-02-28T08:36:08;9.03;;;2.20;;
17251;SDS011;8742;51.716;8.790;2023-02-28T08:38:36;4.33;;;2.07;;
17251;SDS011;8742;51.716;8.790;2023-02-28T08:41:05;3.63;;;2.37;;
17251;SDS011;8742;51.716;8.790;2023-02-28T08:43:36;2.50;;;1.97;;
17251;SDS011;8742;51.716;8.790;2023-02-28T08:46:04;4.97;;;2.70;;
17251;SDS011;8742;51.716;8.790;2023-02-28T08:48:40;4.33;;;2.13;;
17251;SDS011;8742;51.716;8.790;2023-02-28T08:51:09;7.60;;;1.80;;
17251;SDS011;8742;51.716;8.790;2023-02-28T08:53:39;3.53;;;2.17;;
17251;SDS011;8742;51.716;8.790;2023-02-28T08:56:06;2.87;;;2.17;;
17251;SDS011;8742;51.716;8.790;2023-02-28T08:59:13;2.00;;;1.57;;
17251;SDS011;8742;51.716;8.790;2023-02-28T09:01:52;3.83;;;1.80;;
17251;SDS011;8742;51.716;8.790;2023-02-28T09:04:19;3.13;;;1.83;;
17251;SDS011;8742;51.716;8.790;2023-02-28T09:06:46;3.17;;;2.03;;
17251;SDS011;8742;51.716;8.790;2023-02-28T09:09:15;4.40;;;1.90;;
17251;SDS011;8742;51.716;8.790;2023-02-28T09:11:42;2.20;;;1.97;;
17251;SDS011;8742;51.716;8.790;2023-02-28T09:14:09;2.87;;;2.00;;
17251;SDS011;8742;51.716;8.790;2023-02-28T09:16:36;6.10;;;2.10;;
17251;SDS011;8742;51.716;8.790;2023-02-28T09:19:03;2.70;;;1.93;;
17251;SDS011;8742;51.716;8.790;2023-02-28T09:21:30;5.43;;;1.80;;
17251;SDS011;8742;51.716;8.790;2023-02-28T09:23:57;2.63;;;1.80;;
17251;SDS011;8742;51.716;8.790;2023-02-28T09:26:26;3.93;;;2.20;;
17251;SDS011;8742;51.716;8.790;2023-02-28T09:28:54;3.37;;;1.93;;
17251;SDS011;8742;51.716;8.790;2023-02-28T09:31:22;3.37;;;2.13;;
17251;SDS011;8742;51.716;8.790;2023-02-28T09:34:10;3.00;;;1.97;;
17251;SDS011;8742;51.716;8.790;2023-02-28T09:36:37;3.13;;;2.30;;
17251;SDS011;8742;51.716;8.790;2023-02-28T09:39:04;5.63;;;2.10;;
17251;SDS011;8742;51.716;8.790;2023-02-28T09:41:37;3.23;;;1.83;;
17251;SDS011;8742;51.716;8.790;2023-02-28T09:44:16;4.37;;;2.10;;
17251;SDS011;8742;51.716;8.790;2023-02-28T09:46:49;3.77;;;2.10;;
17251;SDS011;8742;51.716;8.790;2023-02-28T09:49:22;7.30;;;2.20;;
17251;SDS011;8742;51.716;8.790;2023-02-28T09:51:54;7.83;;;2.70;;
17251;SDS011;8742;51.716;8.790;2023-02-28T09:54:31;2.87;;;2.57;;
17251;SDS011;8742;51.716;8.790;2023-02-28T09:57:01;4.77;;;2.83;;
17251;SDS011;8742;51.716;8.790;2023-02-28T09:59:45;5.43;;;2.57;;
17251;SDS011;8742;51.716;8.790;2023-02-28T10:02:24;3.60;;;2.57;;
17251;SDS011;8742;51.716;8.790;2023-02-28T10:05:24;3.27;;;2.33;;
17251;SDS011;8742;51.716;8.790;2023-02-28T10:07:59;3.90;;;2.67;;
17251;SDS011;8742;51.716;8.790;2023-02-28T10:10:32;5.63;;;2.50;;
17251;SDS011;8742;51.716;8.790;2023-02-28T10:13:06;3.40;;;2.17;;
17251;SDS011;8742;51.716;8.790;2023-02-28T10:15:42;4.57;;;2.33;;
17251;SDS011;8742;51.716;8.790;2023-02-28T10:18:13;3.27;;;2.33;;
17251;SDS011;8742;51.716;8.790;2023-02-28T10:20:54;3.43;;;2.40;;
17251;SDS011;8742;51.716;8.790;2023-02-28T10:23:23;6.33;;;1.90;;
17251;SDS011;8742;51.716;8.790;2023-02-28T10:25:54;3.00;;;2.50;;
17251;SDS011;8742;51.716;8.790;2023-02-28T10:28:28;4.47;;;2.37;;
17251;SDS011;8742;51.716;8.790;2023-02-28T10:30:57;3.30;;;2.40;;
17251;SDS011;8742;51.716;8.790;2023-02-28T10:33:25;5.43;;;2.60;;
17251;SDS011;8742;51.716;8.790;2023-02-28T10:35:55;6.07;;;2.60;;
17251;SDS011;8742;51.716;8.790;2023-02-28T10:38:27;4.27;;;2.53;;
17251;SDS011;8742;51.716;8.790;2023-02-28T10:41:08;7.13;;;2.43;;
17251;SDS011;8742;51.716;8.790;2023-02-28T10:43:41;4.13;;;2.20;;
17251;SDS011;8742;51.716;8.790;2023-02-28T10:46:11;7.80;;;2.40;;
17251;SDS011;8742;51.716;8.790;2023-02-28T10:48:59;3.00;;;2.27;;
17251;SDS011;8742;51.716;8.790;2023-02-28T10:51:34;2.93;;;2.33;;
17251;SDS011;8742;51.716;8.790;2023-02-28T10:54:04;4.70;;;2.57;;
17251;SDS011;8742;51.716;8.790;2023-02-28T10:56:40;5.53;;;2.57;;
17251;SDS011;8742;51.716;8.790;2023-02-28T10:59:23;5.73;;;2.70;;
17251;SDS011;8742;51.716;8.790;2023-02-28T11:01:55;4.10;;;2.47;;
17251;SDS011;8742;51.716;8.790;2023-02-28T11:04:34;6.23;;;2.80;;
17251;SDS011;8742;51.716;8.790;2023-02-28T11:07:05;3.97;;;2.63;;
17251;SDS011;8742;51.716;8.790;2023-02-28T11:09:44;4.07;;;2.67;;
17251;SDS011;8742;51.716;8.790;2023-02-28T11:12:19;2.43;;;2.23;;
17251;SDS011;8742;51.716;8.790;2023-02-28T11:14:51;2.97;;;2.53;;
17251;SDS011;8742;51.716;8.790;2023-02-28T11:17:22;3.07;;;2.30;;
17251;SDS011;8742;51.716;8.790;2023-02-28T11:19:51;3.27;;;2.60;;
17251;SDS011;8742;51.716;8.790;2023-02-28T11:22:21;3.60;;;2.47;;
17251;SDS011;8742;51.716;8.790;2023-02-28T11:24:53;3.03;;;2.53;;
17251;SDS011;8742;51.716;8.790;2023-02-28T11:27:26;6.93;;;2.83;;
17251;SDS011;8742;51.716;8.790;2023-02-28T11:33:21;4.40;;;2.60;;
17251;SDS011;8742;51.716;8.790;2023-02-28T11:35:49;4.63;;;2.80;;
17251;SDS011;8742;51.716;8.790;2023-02-28T11:38:17;4.87;;;2.50;;
17251;SDS011;8742;51.716;8.790;2023-02-28T11:40:46;4.03;;;2.60;;
17251;SDS011;8742;51.716;8.790;2023-02-28T11:43:25;3.67;;;2.57;;
17251;SDS011;8742;51.716;8.790;2023-02-28T11:46:15;4.43;;;2.53;;
17251;SDS011;8742;51.716;8.790;2023-02-28T11:48:52;4.27;;;2.40;;
17251;SDS011;8742;51.716;8.790;2023-02-28T11:51:27;5.27;;;2.87;;
17251;SDS011;8742;51.716;8.790;2023-02-28T11:54:11;7.57;;;3.20;;
17251;SDS011;8742;51.716;8.790;2023-02-28T11:57:03;2.63;;;2.40;;
17251;SDS011;8742;51.716;8.790;2023-02-28T11:59:50;3.00;;;2.70;;
17251;SDS011;8742;51.716;8.790;2023-02-28T12:02:29;7.80;;;2.60;;
17251;SDS011;8742;51.716;8.790;2023-02-28T12:05:12;3.43;;;2.70;;
17251;SDS011;8742;51.716;8.790;2023-02-28T12:07:52;9.23;;;2.60;;
17251;SDS011;8742;51.716;8.790;2023-02-28T12:10:37;3.73;;;2.50;;
17251;SDS011;8742;51.716;8.790;2023-02-28T12:13:16;2.97;;;2.30;;
17251;SDS011;8742;51.716;8.790;2023-02-28T12:19:06;2.67;;;2.33;;
17251;SDS011;8742;51.716;8.790;2023-02-28T12:22:06;4.10;;;2.67;;
17251;SDS011;8742;51.716;8.790;2023-02-28T12:24:55;3.93;;;2.57;;
17251;SDS011;8742;51.716;8.790;2023-02-28T12:27:50;3.27;;;2.53;;
17251;SDS011;8742;51.716;8.790;2023-02-28T12:30:21;2.50;;;2.30;;
17251;SDS011;8742;51.716;8.790;2023-02-28T12:32:51;3.90;;;2.40;;
17251;SDS011;8742;51.716;8.790;2023-02-28T12:35:23;4.13;;;2.50;;
17251;SDS011;8742;51.716;8.790;2023-02-28T12:37:56;5.53;;;2.33;;
17251;SDS011;8742;51.716;8.790;2023-02-28T12:40:31;2.70;;;2.30;;
17251;SDS011;8742;51.716;8.790;2023-02-28T12:43:07;5.47;;;2.70;;
17251;SDS011;8742;51.716;8.790;2023-02-28T12:45:39;4.30;;;2.57;;
17251;SDS011;8742;51.716;8.790;2023-02-28T12:48:15;3.67;;;2.50;;
17251;SDS011;8742;51.716;8.790;2023-02-28T12:50:48;3.43;;;2.50;;
17251;SDS011;8742;51.716;8.790;2023-02-28T12:53:17;4.20;;;2.70;;
17251;SDS011;8742;51.716;8.790;2023-02-28T12:55:50;4.60;;;2.80;;
17251;SDS011;8742;51.716;8.790;2023-02-28T12:58:28;4.57;;;2.63;;
17251;SDS011;8742;51.716;8.790;2023-02-28T13:01:04;6.63;;;2.67;;
17251;SDS011;8742;51.716;8.790;2023-02-28T13:03:58;4.73;;;2.37;;
17251;SDS011;8742;51.716;8.790;2023-02-28T13:06:55;2.80;;;2.10;;
17251;SDS011;8742;51.716;8.790;2023-02-28T13:09:40;2.53;;;2.20;;
17251;SDS011;8742;51.716;8.790;2023-02-28T13:12:13;2.63;;;2.40;;
17251;SDS011;8742;51.716;8.790;2023-02-28T13:14:42;4.33;;;2.30;;
17251;SDS011;8742;51.716;8.790;2023-02-28T13:17:12;5.00;;;2.60;;
17251;SDS011;8742;51.716;8.790;2023-02-28T13:19:46;4.40;;;2.50;;
17251;SDS011;8742;51.716;8.790;2023-02-28T13:22:38;4.43;;;2.67;;
17251;SDS011;8742;51.716;8.790;2023-02-28T13:31:31;3.97;;;2.27;;
17251;SDS011;8742;51.716;8.790;2023-02-28T13:36:41;3.47;;;2.47;;
17251;SDS011;8742;51.716;8.790;2023-02-28T13:45:58;3.43;;;2.27;;
17251;SDS011;8742;51.716;8.790;2023-02-28T13:48:46;4.17;;;2.60;;
17251;SDS011;8742;51.716;8.790;2023-02-28T13:51:35;3.10;;;2.50;;
17251;SDS011;8742;51.716;8.790;2023-02-28T13:54:15;4.90;;;2.53;;
17251;SDS011;8742;51.716;8.790;2023-02-28T13:56:50;2.27;;;2.03;;
17251;SDS011;8742;51.716;8.790;2023-02-28T13:59:32;4.20;;;2.13;;
17251;SDS011;8742;51.716;8.790;2023-02-28T14:02:25;2.80;;;2.47;;
17251;SDS011;8742;51.716;8.790;2023-02-28T14:05:04;5.50;;;2.30;;
17251;SDS011;8742;51.716;8.790;2023-02-28T14:07:38;6.90;;;2.00;;
17251;SDS011;8742;51.716;8.790;2023-02-28T14:10:20;4.70;;;2.80;;
17251;SDS011;8742;51.716;8.790;2023-02-28T14:12:55;2.90;;;2.60;;
17251;SDS011;8742;51.716;8.790;2023-02-28T14:15:28;3.53;;;2.17;;
17251;SDS011;8742;51.716;8.790;2023-02-28T14:18:06;2.70;;;2.50;;
17251;SDS011;8742;51.716;8.790;2023-02-28T14:20:43;2.17;;;2.03;;
17251;SDS011;8742;51.716;8.790;2023-02-28T14:23:15;2.43;;;2.23;;
17251;SDS011;8742;51.716;8.790;2023-02-28T14:25:53;4.07;;;2.50;;
17251;SDS011;8742;51.716;8.790;2023-02-28T14:28:33;3.60;;;2.17;;
17251;SDS011;8742;51.716;8.790;2023-02-28T14:31:22;3.40;;;2.57;;
17251;SDS011;8742;51.716;8.790;2023-02-28T14:34:04;3.23;;;2.50;;
17251;SDS011;8742;51.716;8.790;2023-02-28T14:36:54;4.03;;;2.43;;
17251;SDS011;8742;51.716;8.790;2023-02-28T14:39:40;3.50;;;2.67;;
17251;SDS011;8742;51.716;8.790;2023-02-28T14:44:56;3.13;;;2.20;;
17251;SDS011;8742;51.716;8.790;2023-02-28T14:47:25;5.47;;;2.53;;
17251;SDS011;8742;51.716;8.790;2023-02-28T14:50:04;6.10;;;2.73;;
17251;SDS011;8742;51.716;8.790;2023-02-28T14:52:32;4.67;;;2.57;;
17251;SDS011;8742;51.716;8.790;2023-02-28T14:55:14;4.90;;;2.50;;
17251;SDS011;8742;51.716;8.790;2023-02-28T14:57:50;4.70;;;2.70;;
17251;SDS011;8742;51.716;8.790;2023-02-28T15:00:30;2.60;;;2.40;;
17251;SDS011;8742;51.716;8.790;2023-02-28T15:03:18;2.63;;;2.43;;
17251;SDS011;8742;51.716;8.790;2023-02-28T15:05:56;5.93;;;2.77;;
17251;SDS011;8742;51.716;8.790;2023-02-28T15:08:24;3.27;;;2.53;;
17251;SDS011;8742;51.716;8.790;2023-02-28T15:10:54;3.37;;;2.33;;
17251;SDS011;8742;51.716;8.790;2023-02-28T15:13:38;3.33;;;2.37;;
17251;SDS011;8742;51.716;8.790;2023-02-28T15:16:22;5.03;;;2.73;;
17251;SDS011;8742;51.716;8.790;2023-02-28T15:18:52;3.57;;;2.57;;
17251;SDS011;8742;51.716;8.790;2023-02-28T15:21:32;5.30;;;2.70;;
17251;SDS011;8742;51.716;8.790;2023-02-28T15:24:02;3.50;;;2.47;;
17251;SDS011;8742;51.716;8.790;2023-02-28T15:26:34;2.53;;;2.33;;
17251;SDS011;8742;51.716;8.790;2023-02-28T15:29:15;2.37;;;2.17;;
17251;SDS011;8742;51.716;8.790;2023-02-28T15:31:49;4.13;;;2.77;;
17251;SDS011;8742;51.716;8.790;2023-02-28T15:34:22;4.40;;;2.60;;
17251;SDS011;8742;51.716;8.790;2023-02-28T15:39:40;3.77;;;2.77;;
17251;SDS011;8742;51.716;8.790;2023-02-28T15:42:29;3.20;;;2.90;;
17251;SDS011;8742;51.716;8.790;2023-02-28T15:44:57;7.47;;;3.13;;
17251;SDS011;8742;51.716;8.790;2023-02-28T15:47:27;3.20;;;2.73;;
17251;SDS011;8742;51.716;8.790;2023-02-28T15:49:56;4.53;;;2.57;;
17251;SDS011;8742;51.716;8.790;2023-02-28T15:52:27;3.90;;;2.70;;
17251;SDS011;8742;51.716;8.790;2023-02-28T15:54:57;4.97;;;3.07;;
17251;SDS011;8742;51.716;8.790;2023-02-28T15:57:28;4.60;;;2.47;;
17251;SDS011;8742;51.716;8.790;2023-02-28T15:59:56;3.47;;;2.50;;
17251;SDS011;8742;51.716;8.790;2023-02-28T16:02:32;3.20;;;2.60;;
17251;SDS011;8742;51.716;8.790;2023-02-28T16:05:01;10.10;;;2.77;;
17251;SDS011;8742;51.716;8.790;2023-02-28T16:07:45;3.07;;;2.40;;
17251;SDS011;8742;51.716;8.790;2023-02-28T16:10:13;3.97;;;2.37;;